createdAt,value
2023-05-12T00:01:45.539Z,5.45
2023-05-12T00:04:13.282Z,5.38
2023-05-12T00:06:41.290Z,5.47
2023-05-12T00:09:09.741Z,5.47
2023-05-12T00:11:40.817Z,5.30
2023-05-12T00:14:09.055Z,5.35
2023-05-12T00:16:37.079Z,5.65
2023-05-12T00:19:04.800Z,5.35
2023-05-12T00:21:32.900Z,5.25
2023-05-12T00:24:00.554Z,5.57
2023-05-12T00:26:28.524Z,5.15
2023-05-12T00:28:56.234Z,5.65
2023-05-12T00:31:24.308Z,5.25
2023-05-12T00:33:52.156Z,5.75
2023-05-12T00:36:20.149Z,5.57
2023-05-12T00:38:47.810Z,5.28
2023-05-12T00:41:16.261Z,5.38
2023-05-12T00:43:43.960Z,5.00
2023-05-12T00:46:12.540Z,5.03
2023-05-12T00:48:40.558Z,4.80
2023-05-12T00:51:08.967Z,4.82
2023-05-12T00:53:48.469Z,5.28
2023-05-12T00:56:20.040Z,5.00
2023-05-12T00:58:48.025Z,5.10
2023-05-12T01:01:17.721Z,5.05
2023-05-12T01:03:47.760Z,5.40
2023-05-12T01:06:43.808Z,4.95
2023-05-12T01:09:12.775Z,5.30
2023-05-12T01:11:40.778Z,5.22
2023-05-12T01:14:09.504Z,4.82
2023-05-12T01:16:51.420Z,4.70
2023-05-12T01:19:49.607Z,5.22
2023-05-12T01:22:18.266Z,4.60
2023-05-12T01:24:54.928Z,4.90
2023-05-12T01:27:25.925Z,4.80
2023-05-12T01:30:00.451Z,5.03
2023-05-12T01:32:30.574Z,5.28
2023-05-12T01:34:59.310Z,5.28
2023-05-12T01:37:27.585Z,4.97
2023-05-12T01:39:55.997Z,5.20
2023-05-12T01:42:24.027Z,4.72
2023-05-12T01:44:52.008Z,4.80
2023-05-12T01:47:21.767Z,4.82
2023-05-12T01:50:07.506Z,5.38
2023-05-12T01:52:38.792Z,5.40
2023-05-12T01:55:10.901Z,5.25
2023-05-12T01:57:46.415Z,4.60
2023-05-12T02:00:14.719Z,5.10
2023-05-12T02:02:45.430Z,5.18
2023-05-12T02:05:14.188Z,4.72
2023-05-12T02:07:45.200Z,5.00
2023-05-12T02:10:13.832Z,5.15
2023-05-12T02:12:41.828Z,5.15
2023-05-12T02:15:10.615Z,4.95
2023-05-12T02:17:43.117Z,5.07
2023-05-12T02:20:12.434Z,5.55
2023-05-12T02:22:40.805Z,5.00
2023-05-12T02:25:09.167Z,4.60
2023-05-12T02:27:37.456Z,5.03
2023-05-12T02:30:06.668Z,4.35
2023-05-12T02:32:34.726Z,5.07
2023-05-12T02:35:02.489Z,5.28
2023-05-12T02:37:30.697Z,5.82
2023-05-12T02:39:58.445Z,4.78
2023-05-12T02:42:31.039Z,5.32
2023-05-12T02:44:58.704Z,5.43
2023-05-12T02:47:26.612Z,5.07
2023-05-12T02:49:55.614Z,4.88
2023-05-12T02:52:24.141Z,4.75
2023-05-12T02:54:52.013Z,5.10
2023-05-12T02:57:20.114Z,5.05
2023-05-12T02:59:47.761Z,5.15
2023-05-12T03:02:15.887Z,4.57
2023-05-12T03:04:43.764Z,5.00
2023-05-12T03:07:11.745Z,5.00
2023-05-12T03:09:39.544Z,4.90
2023-05-12T03:12:08.004Z,4.95
2023-05-12T03:14:35.822Z,5.10
2023-05-12T03:17:03.970Z,4.50
2023-05-12T03:19:31.738Z,4.78
2023-05-12T03:21:59.781Z,5.00
2023-05-12T03:24:27.807Z,5.20
2023-05-12T03:26:56.224Z,5.03
2023-05-12T03:29:24.638Z,4.82
2023-05-12T03:31:52.978Z,5.43
2023-05-12T03:34:20.989Z,5.18
2023-05-12T03:36:49.913Z,4.80
2023-05-12T03:39:18.543Z,5.03
2023-05-12T03:41:46.517Z,4.68
2023-05-12T03:44:14.335Z,4.97
2023-05-12T03:46:42.528Z,5.55
2023-05-12T03:49:10.672Z,4.50
2023-05-12T03:51:38.741Z,5.15
2023-05-12T03:54:06.462Z,5.40
2023-05-12T03:56:34.729Z,4.90
2023-05-12T03:59:02.512Z,5.40
2023-05-12T04:01:30.627Z,4.50
2023-05-12T04:03:58.366Z,5.03
2023-05-12T04:06:26.519Z,4.97
2023-05-12T04:08:54.323Z,4.88
2023-05-12T04:11:22.336Z,4.78
2023-05-12T04:13:51.348Z,4.40
2023-05-12T04:16:19.347Z,4.85
2023-05-12T04:18:47.000Z,4.78
2023-05-12T04:21:15.021Z,4.68
2023-05-12T04:23:43.763Z,4.60
2023-05-12T04:26:11.786Z,4.28
2023-05-12T04:28:39.601Z,4.53
2023-05-12T04:31:07.581Z,4.85
2023-05-12T04:33:36.978Z,4.93
2023-05-12T04:36:06.447Z,4.28
2023-05-12T04:38:34.272Z,4.38
2023-05-12T04:41:02.323Z,4.45
2023-05-12T04:46:02.002Z,4.40
2023-05-12T04:48:29.848Z,4.70
2023-05-12T04:51:00.325Z,4.20
2023-05-12T04:53:28.529Z,4.90
2023-05-12T04:55:56.839Z,4.40
2023-05-12T04:58:26.770Z,4.78
2023-05-12T05:00:54.828Z,4.20
2023-05-12T05:03:23.499Z,4.65
2023-05-12T05:05:51.824Z,4.57
2023-05-12T05:08:19.599Z,5.18
2023-05-12T05:10:47.646Z,4.72
2023-05-12T05:13:16.543Z,4.40
2023-05-12T05:15:55.778Z,4.15
2023-05-12T05:18:25.908Z,4.22
2023-05-12T05:20:58.429Z,4.32
2023-05-12T05:23:27.193Z,4.53
2023-05-12T05:25:56.197Z,4.30
2023-05-12T05:28:24.538Z,4.22
2023-05-12T05:30:52.831Z,4.72
2023-05-12T05:33:20.554Z,4.50
2023-05-12T05:35:48.949Z,4.30
2023-05-12T05:38:17.313Z,4.47
2023-05-12T05:40:52.919Z,4.05
2023-05-12T05:43:22.015Z,3.90
2023-05-12T05:45:50.432Z,4.40
2023-05-12T05:48:19.273Z,4.25
2023-05-12T05:50:48.774Z,5.00
2023-05-12T05:53:18.475Z,3.85
2023-05-12T05:55:48.603Z,4.40
2023-05-12T05:58:16.898Z,3.90
2023-05-12T06:00:46.637Z,4.10
2023-05-12T06:03:14.454Z,4.70
2023-05-12T06:05:44.479Z,4.22
2023-05-12T06:08:13.602Z,4.35
2023-05-12T06:10:42.066Z,4.00
2023-05-12T06:13:10.065Z,3.90
2023-05-12T06:15:38.110Z,3.55
2023-05-12T06:18:05.984Z,3.60
2023-05-12T06:20:34.507Z,3.40
2023-05-12T06:23:02.619Z,3.50
2023-05-12T06:25:33.107Z,3.47
2023-05-12T06:28:01.809Z,3.55
2023-05-12T06:30:29.928Z,3.67
2023-05-12T06:32:57.674Z,3.97
2023-05-12T06:35:25.708Z,3.60
2023-05-12T06:37:53.511Z,3.70
2023-05-12T06:40:21.643Z,3.47
2023-05-12T06:42:49.937Z,3.17
2023-05-12T06:45:23.387Z,3.47
2023-05-12T06:47:51.511Z,3.97
2023-05-12T06:50:19.795Z,3.47
2023-05-12T06:52:52.409Z,3.20
2023-05-12T06:55:21.239Z,3.20
2023-05-12T06:57:51.776Z,3.65
2023-05-12T07:00:20.076Z,3.35
2023-05-12T07:02:47.787Z,2.97
2023-05-12T07:05:15.829Z,3.10
2023-05-12T07:07:43.427Z,2.75
2023-05-12T07:10:11.699Z,3.00
2023-05-12T07:12:39.665Z,3.22
2023-05-12T07:15:08.593Z,3.05
2023-05-12T07:17:36.366Z,3.28
2023-05-12T07:20:05.717Z,3.13
2023-05-12T07:22:33.555Z,2.97
2023-05-12T07:25:01.868Z,3.10
2023-05-12T07:27:29.590Z,3.03
2023-05-12T07:29:57.507Z,2.85
2023-05-12T07:32:25.944Z,2.80
2023-05-12T07:34:53.944Z,3.03
2023-05-12T07:37:21.573Z,2.83
2023-05-12T07:39:49.789Z,2.78
2023-05-12T07:42:17.516Z,3.03
2023-05-12T07:44:45.514Z,2.88
2023-05-12T07:47:13.254Z,2.90
2023-05-12T07:49:41.514Z,2.75
2023-05-12T07:52:09.587Z,2.70
2023-05-12T07:54:37.662Z,3.10
2023-05-12T07:57:05.601Z,2.80
2023-05-12T07:59:33.602Z,3.03
2023-05-12T08:02:01.671Z,3.00
2023-05-12T08:04:29.779Z,2.70
2023-05-12T08:06:57.483Z,2.72
2023-05-12T08:09:25.382Z,2.80
2023-05-12T08:11:53.118Z,2.80
2023-05-12T08:14:22.721Z,2.72
2023-05-12T08:16:50.728Z,3.10
2023-05-12T08:19:18.732Z,3.00
2023-05-12T08:21:46.375Z,2.83
2023-05-12T08:24:14.460Z,3.00
2023-05-12T08:26:42.173Z,2.42
2023-05-12T08:29:10.216Z,2.90
2023-05-12T08:31:39.067Z,3.17
2023-05-12T08:34:10.698Z,2.95
2023-05-12T08:36:42.464Z,2.88
2023-05-12T08:39:10.771Z,2.85
2023-05-12T08:42:17.542Z,2.88
2023-05-12T08:44:46.560Z,2.88
2023-05-12T08:47:18.560Z,3.00
2023-05-12T08:49:57.439Z,2.80
2023-05-12T08:52:26.074Z,3.03
2023-05-12T08:54:56.489Z,2.33
2023-05-12T08:57:26.408Z,2.90
2023-05-12T08:59:57.241Z,3.20
2023-05-12T09:02:37.704Z,2.80
2023-05-12T09:05:12.364Z,3.10
2023-05-12T09:07:48.062Z,3.03
2023-05-12T09:10:33.619Z,2.60
2023-05-12T09:13:14.769Z,2.97
2023-05-12T09:15:48.001Z,2.65
2023-05-12T09:18:15.812Z,3.03
2023-05-12T09:20:44.072Z,3.20
2023-05-12T09:23:20.057Z,3.00
2023-05-12T09:26:00.762Z,4.45
2023-05-12T09:28:38.800Z,3.40
2023-05-12T09:31:18.401Z,2.90
2023-05-12T09:33:46.221Z,2.83
2023-05-12T09:36:21.513Z,3.00
2023-05-12T09:39:07.162Z,2.80
2023-05-12T09:41:43.138Z,2.72
2023-05-12T09:44:14.659Z,2.72
2023-05-12T09:46:42.654Z,2.80
2023-05-12T09:49:10.574Z,2.65
2023-05-12T09:51:39.937Z,2.95
2023-05-12T09:54:08.082Z,2.90
2023-05-12T09:56:38.490Z,2.78
2023-05-12T09:59:07.332Z,2.65
2023-05-12T10:01:35.941Z,3.53
2023-05-12T10:04:07.669Z,2.75
2023-05-12T10:06:43.149Z,3.20
2023-05-12T10:09:18.556Z,2.83
2023-05-12T10:11:47.868Z,3.03
2023-05-12T10:14:16.645Z,2.63
2023-05-12T10:16:47.262Z,2.70
2023-05-12T10:19:15.706Z,3.13
2023-05-12T10:21:47.491Z,3.20
2023-05-12T10:24:18.537Z,3.10
2023-05-12T10:26:46.518Z,3.10
2023-05-12T10:29:15.186Z,3.33
2023-05-12T10:31:45.636Z,2.95
2023-05-12T10:34:21.672Z,2.67
2023-05-12T10:36:51.561Z,2.78
2023-05-12T10:39:19.977Z,2.88
2023-05-12T10:41:48.064Z,2.95
2023-05-12T10:44:26.314Z,3.05
2023-05-12T10:47:00.434Z,3.00
2023-05-12T10:49:41.913Z,2.85
2023-05-12T10:52:15.658Z,3.03
2023-05-12T10:54:44.847Z,3.03
2023-05-12T10:57:21.189Z,3.63
2023-05-12T10:59:57.644Z,2.92
2023-05-12T11:02:32.569Z,2.88
2023-05-12T11:05:07.282Z,2.60
2023-05-12T11:07:36.155Z,2.78
2023-05-12T11:10:07.610Z,3.45
2023-05-12T11:12:37.326Z,2.83
2023-05-12T11:15:06.807Z,3.00
2023-05-12T11:17:39.228Z,3.17
2023-05-12T11:20:09.809Z,3.38
2023-05-12T11:22:40.644Z,2.70
2023-05-12T11:25:12.638Z,2.80
2023-05-12T11:27:47.593Z,2.95
2023-05-12T11:30:15.996Z,3.33
2023-05-12T11:32:44.343Z,2.97
2023-05-12T11:35:17.106Z,2.95
2023-05-12T11:37:45.911Z,2.85
2023-05-12T11:40:18.139Z,3.17
2023-05-12T11:42:52.282Z,3.08
2023-05-12T11:47:53.850Z,3.00
2023-05-12T11:50:25.876Z,2.90
2023-05-12T11:52:54.689Z,2.83
2023-05-12T11:55:24.125Z,2.88
2023-05-12T11:58:03.192Z,2.80
2023-05-12T12:00:40.221Z,3.25
2023-05-12T12:03:15.759Z,3.15
2023-05-12T12:05:45.948Z,2.83
2023-05-12T12:08:15.669Z,3.13
2023-05-12T12:10:47.243Z,2.97
2023-05-12T12:13:25.648Z,3.65
2023-05-12T12:15:54.468Z,3.05
2023-05-12T12:18:22.494Z,2.60
2023-05-12T12:20:50.285Z,2.83
2023-05-12T12:23:18.276Z,2.78
2023-05-12T12:25:45.902Z,2.90
2023-05-12T12:28:14.005Z,2.92
2023-05-12T12:30:41.746Z,2.88
2023-05-12T12:33:09.902Z,3.05
2023-05-12T12:35:37.671Z,2.85
2023-05-12T12:38:05.723Z,2.92
2023-05-12T12:40:33.438Z,3.47
2023-05-12T12:43:01.468Z,3.00
2023-05-12T12:45:29.573Z,2.95
2023-05-12T12:47:57.542Z,3.10
2023-05-12T12:50:27.197Z,2.97
2023-05-12T12:52:55.430Z,2.83
2023-05-12T12:55:23.426Z,3.33
2023-05-12T12:57:51.546Z,3.00
2023-05-12T13:00:19.740Z,2.83
2023-05-12T13:02:47.909Z,3.22
2023-05-12T13:05:16.405Z,3.83
2023-05-12T13:07:44.431Z,3.47
2023-05-12T13:10:12.503Z,3.13
2023-05-12T13:12:40.472Z,3.00
2023-05-12T13:15:08.628Z,3.30
2023-05-12T13:17:36.604Z,3.08
2023-05-12T13:20:04.755Z,2.95
2023-05-12T13:22:33.265Z,3.13
2023-05-12T13:25:01.177Z,2.80
2023-05-12T13:27:29.257Z,3.20
2023-05-12T13:29:56.937Z,3.70
2023-05-12T13:32:24.946Z,3.33
2023-05-12T13:34:52.676Z,3.10
2023-05-12T13:37:20.716Z,3.40
2023-05-12T13:39:48.562Z,2.83
2023-05-12T13:42:17.278Z,2.92
2023-05-12T13:44:45.013Z,3.13
2023-05-12T13:47:12.932Z,2.70
2023-05-12T13:49:40.911Z,2.63
2023-05-12T13:52:09.069Z,3.45
2023-05-12T13:54:36.982Z,2.80
2023-05-12T13:57:06.122Z,3.28
2023-05-12T13:59:34.028Z,3.10
2023-05-12T14:02:02.505Z,2.92
2023-05-12T14:04:30.364Z,2.97
2023-05-12T14:06:58.133Z,2.88
2023-05-12T14:09:26.219Z,3.10
2023-05-12T14:11:54.491Z,3.10
2023-05-12T14:14:22.420Z,3.33
2023-05-12T14:16:50.434Z,2.83
2023-05-12T14:19:18.482Z,3.10
2023-05-12T14:21:46.212Z,2.97
2023-05-12T14:24:14.204Z,3.05
2023-05-12T14:26:41.909Z,3.00
2023-05-12T14:29:10.179Z,3.67
2023-05-12T14:31:37.934Z,3.08
2023-05-12T14:34:05.951Z,3.25
2023-05-12T14:36:33.627Z,2.72
2023-05-12T14:39:01.587Z,2.60
2023-05-12T14:41:29.293Z,3.08
2023-05-12T14:43:57.875Z,3.28
2023-05-12T14:46:25.838Z,2.95
2023-05-12T14:48:53.901Z,3.13
2023-05-12T14:51:21.582Z,3.05
2023-05-12T14:53:49.576Z,2.60
2023-05-12T14:56:17.290Z,3.30
2023-05-12T14:58:45.141Z,3.00
2023-05-12T15:01:12.822Z,3.00
2023-05-12T15:03:40.765Z,2.70
2023-05-12T15:06:08.769Z,3.17
2023-05-12T15:08:36.879Z,2.97
2023-05-12T15:11:05.135Z,3.22
2023-05-12T15:13:33.296Z,2.88
2023-05-12T15:16:01.509Z,2.72
2023-05-12T15:18:29.578Z,2.65
2023-05-12T15:20:57.547Z,2.70
2023-05-12T15:23:25.737Z,3.08
2023-05-12T15:25:53.416Z,2.90
2023-05-12T15:28:21.375Z,3.20
2023-05-12T15:30:56.701Z,2.78
2023-05-12T15:33:26.802Z,2.80
2023-05-12T15:35:54.565Z,2.92
2023-05-12T15:38:22.595Z,3.00
2023-05-12T15:40:50.322Z,2.90
2023-05-12T15:43:18.392Z,2.97
2023-05-12T15:45:46.271Z,2.78
2023-05-12T15:48:14.223Z,3.10
2023-05-12T15:50:42.718Z,2.70
2023-05-12T15:53:10.832Z,2.85
2023-05-12T15:55:38.546Z,2.72
2023-05-12T15:58:08.296Z,3.15
2023-05-12T16:00:36.203Z,2.80
2023-05-12T16:03:04.399Z,3.65
2023-05-12T16:05:34.106Z,3.20
2023-05-12T16:08:02.039Z,2.70
2023-05-12T16:10:29.953Z,2.80
2023-05-12T16:12:57.904Z,3.03
2023-05-12T16:15:25.600Z,2.90
2023-05-12T16:17:53.601Z,3.13
2023-05-12T16:20:21.908Z,3.10
2023-05-12T16:22:51.286Z,3.28
2023-05-12T16:25:20.314Z,3.00
2023-05-12T16:27:48.577Z,2.97
2023-05-12T16:30:19.279Z,3.05
2023-05-12T16:32:48.316Z,2.78
2023-05-12T16:35:16.575Z,3.20
2023-05-12T16:37:44.508Z,3.30
2023-05-12T16:40:12.507Z,3.53
2023-05-12T16:42:40.787Z,3.88
2023-05-12T16:45:09.221Z,3.30
2023-05-12T16:47:37.191Z,3.33
2023-05-12T16:50:05.486Z,3.13
2023-05-12T16:52:33.653Z,2.95
2023-05-12T16:55:01.692Z,2.90
2023-05-12T16:57:29.663Z,3.00
2023-05-12T16:59:57.346Z,2.25
2023-05-12T17:02:25.471Z,2.58
2023-05-12T17:04:53.422Z,3.00
2023-05-12T17:07:21.434Z,2.75
2023-05-12T17:09:49.064Z,2.67
2023-05-12T17:12:17.156Z,2.80
2023-05-12T17:14:50.227Z,3.25
2023-05-12T17:17:24.006Z,3.13
2023-05-12T17:19:54.227Z,3.15
2023-05-12T17:22:22.384Z,3.03
2023-05-12T17:24:50.049Z,3.13
2023-05-12T17:27:18.010Z,3.00
2023-05-12T17:29:46.042Z,2.97
2023-05-12T17:32:14.085Z,3.25
2023-05-12T17:34:41.791Z,3.10
2023-05-12T17:37:10.075Z,3.47
2023-05-12T17:39:40.564Z,3.50
2023-05-12T17:42:09.235Z,3.35
2023-05-12T17:44:37.009Z,3.38
2023-05-12T17:47:05.459Z,3.63
2023-05-12T17:49:33.248Z,3.58
2023-05-12T17:52:01.226Z,3.70
2023-05-12T17:54:29.013Z,3.50
2023-05-12T17:56:57.202Z,3.58
2023-05-12T17:59:25.192Z,3.72
2023-05-12T18:01:53.574Z,4.05
2023-05-12T18:04:23.072Z,3.67
2023-05-12T18:06:51.282Z,3.55
2023-05-12T18:09:23.506Z,4.00
2023-05-12T18:11:51.440Z,4.55
2023-05-12T18:14:19.156Z,5.07
2023-05-12T18:16:47.285Z,6.07
2023-05-12T18:19:15.349Z,6.25
2023-05-12T18:21:43.439Z,6.55
2023-05-12T18:24:11.273Z,6.47
2023-05-12T18:26:39.226Z,6.50
2023-05-12T18:29:06.869Z,7.57
2023-05-12T18:31:36.173Z,8.20
2023-05-12T18:34:03.836Z,8.20
2023-05-12T18:36:32.234Z,7.57
2023-05-12T18:39:00.019Z,8.25
2023-05-12T18:41:28.140Z,8.10
2023-05-12T18:43:55.879Z,8.45
2023-05-12T18:46:23.889Z,8.82
2023-05-12T18:48:51.642Z,8.82
2023-05-12T18:51:19.726Z,8.20
2023-05-12T18:53:47.945Z,7.75
2023-05-12T18:56:15.932Z,8.38
2023-05-12T18:58:44.299Z,9.10
2023-05-12T19:01:12.410Z,7.90
2023-05-12T19:03:41.005Z,8.15
2023-05-12T19:06:08.918Z,8.30
2023-05-12T19:08:36.564Z,8.10
2023-05-12T19:11:04.784Z,8.30
2023-05-12T19:13:32.543Z,8.25
2023-05-12T19:16:00.782Z,10.00
2023-05-12T19:18:28.495Z,9.15
2023-05-12T19:20:56.781Z,8.43
2023-05-12T19:23:24.613Z,8.57
2023-05-12T19:25:52.628Z,8.98
2023-05-12T19:28:20.322Z,10.13
2023-05-12T19:30:48.243Z,10.10
2023-05-12T19:33:17.342Z,9.70
2023-05-12T19:35:45.585Z,10.60
2023-05-12T19:38:13.287Z,8.60
2023-05-12T19:40:41.273Z,9.48
2023-05-12T19:43:10.672Z,8.98
2023-05-12T19:45:39.102Z,10.20
2023-05-12T19:48:07.658Z,9.30
2023-05-12T19:50:35.751Z,9.98
2023-05-12T19:53:03.441Z,9.27
2023-05-12T19:55:31.590Z,8.93
2023-05-12T19:58:00.008Z,9.82
2023-05-12T20:00:28.177Z,9.50
2023-05-12T20:02:55.908Z,9.38
2023-05-12T20:05:24.506Z,9.45
2023-05-12T20:07:52.257Z,10.70
2023-05-12T20:10:20.366Z,9.68
2023-05-12T20:12:48.097Z,10.05
2023-05-12T20:15:16.296Z,11.00
2023-05-12T20:17:44.088Z,10.70
2023-05-12T20:20:12.512Z,10.85
2023-05-12T20:22:40.534Z,10.73
2023-05-12T20:25:09.189Z,10.18
2023-05-12T20:27:36.908Z,10.43
2023-05-12T20:30:05.892Z,12.32
2023-05-12T20:32:33.570Z,12.65
2023-05-12T20:35:01.948Z,12.07
2023-05-12T20:37:29.692Z,11.80
2023-05-12T20:39:57.860Z,12.48
2023-05-12T20:44:53.935Z,11.25
2023-05-12T20:47:21.776Z,11.80
2023-05-12T20:49:54.420Z,12.07
2023-05-12T20:52:23.301Z,12.38
2023-05-12T20:54:57.501Z,12.75
2023-05-12T20:57:28.921Z,13.70
2023-05-12T20:59:57.155Z,13.68
2023-05-12T21:02:26.944Z,13.20
2023-05-12T21:04:55.427Z,14.30
2023-05-12T21:07:23.243Z,13.38
2023-05-12T21:09:51.264Z,12.57
2023-05-12T21:12:19.016Z,13.35
2023-05-12T21:14:47.137Z,14.70
2023-05-12T21:17:16.439Z,14.57
2023-05-12T21:19:44.464Z,14.57
2023-05-12T21:22:12.987Z,14.82
2023-05-12T21:24:41.924Z,15.60
2023-05-12T21:27:09.809Z,17.17
2023-05-12T21:29:37.964Z,15.90
2023-05-12T21:32:06.249Z,16.75
2023-05-12T21:34:35.951Z,14.52
2023-05-12T21:37:03.911Z,15.82
2023-05-12T21:39:31.869Z,15.02
2023-05-12T21:41:59.750Z,14.20
2023-05-12T21:44:28.472Z,15.60
2023-05-12T21:46:58.673Z,13.88
2023-05-12T21:49:26.884Z,14.40
2023-05-12T21:51:57.382Z,14.02
2023-05-12T21:54:25.465Z,15.38
2023-05-12T21:56:53.225Z,15.25
2023-05-12T21:59:21.169Z,17.52
2023-05-12T22:01:48.922Z,17.45
2023-05-12T22:04:16.956Z,19.13
2023-05-12T22:06:44.743Z,18.50
2023-05-12T22:09:12.983Z,18.77
2023-05-12T22:11:40.705Z,18.40
2023-05-12T22:14:08.860Z,18.13
2023-05-12T22:16:41.862Z,19.15
2023-05-12T22:19:10.939Z,17.77
2023-05-12T22:21:38.933Z,18.73
2023-05-12T22:24:07.238Z,18.98
2023-05-12T22:26:34.958Z,19.88
2023-05-12T22:29:02.966Z,18.48
2023-05-12T22:31:30.661Z,19.25
2023-05-12T22:33:58.638Z,19.38
2023-05-12T22:36:26.437Z,19.27
2023-05-12T22:38:54.336Z,21.95
2023-05-12T22:41:22.048Z,22.75
2023-05-12T22:43:50.127Z,22.90
2023-05-12T22:46:17.906Z,23.05
2023-05-12T22:48:45.943Z,22.80
2023-05-12T22:51:13.568Z,23.00
2023-05-12T22:53:41.574Z,24.52
2023-05-12T22:56:09.304Z,22.15
2023-05-12T22:58:37.314Z,22.00
2023-05-12T23:01:05.117Z,20.23
2023-05-12T23:03:33.172Z,21.25
2023-05-12T23:06:00.885Z,20.63
2023-05-12T23:08:28.879Z,19.08
2023-05-12T23:10:56.538Z,18.50
2023-05-12T23:13:24.544Z,16.13
2023-05-12T23:15:52.170Z,17.35
2023-05-12T23:18:20.669Z,16.90
2023-05-12T23:20:48.368Z,17.27
2023-05-12T23:23:16.302Z,17.27
2023-05-12T23:25:43.993Z,17.45
2023-05-12T23:28:12.012Z,17.25
2023-05-12T23:30:39.670Z,17.50
2023-05-12T23:33:07.745Z,17.40
2023-05-12T23:35:35.559Z,18.55
2023-05-12T23:38:03.533Z,20.33
2023-05-12T23:40:33.472Z,20.08
2023-05-12T23:43:01.707Z,21.85
2023-05-12T23:45:29.349Z,24.35
2023-05-12T23:47:57.297Z,22.45
2023-05-12T23:50:25.100Z,24.42
2023-05-12T23:52:53.695Z,24.92
2023-05-12T23:55:22.347Z,25.67
2023-05-12T23:57:50.497Z,25.80
